Time;durP1;ratioP1;P1;durP2;ratioP2;P2;SDS_P1;SDS_P2;PMS_P1;PMS_P2;Temp;Humidity;BMP_temperature;BMP_pressure;BME280_temperature;BME280_humidity;BME280_pressure;Samples;Min_cycle;Max_cycle;Signal;HPM_P1;HPM_P2
2023/03/04 00:02:22;;;;;;;93.10;45.22;;;-0.30;99.90;;;;;;5033650;28;20587;-49
2023/03/04 00:04:48;;;;;;;82.35;42.88;;;-0.40;99.90;;;;;;5033983;28;20061;-50
2023/03/04 00:07:15;;;;;;;90.07;44.92;;;-0.40;99.90;;;;;;5033832;28;20044;-50
2023/03/04 00:09:43;;;;;;;91.63;42.75;;;-0.40;99.90;;;;;;5033775;28;20029;-50
2023/03/04 00:12:09;;;;;;;85.22;40.60;;;-0.40;99.90;;;;;;5033543;28;20065;-50
2023/03/04 00:14:34;;;;;;;81.13;43.38;;;-0.40;99.90;;;;;;5033508;28;20123;-50
2023/03/04 00:17:03;;;;;;;78.97;41.95;;;-0.40;99.90;;;;;;5033700;28;20109;-50
2023/03/04 00:19:29;;;;;;;85.13;42.75;;;-0.40;99.90;;;;;;5034726;28;20029;-51
2023/03/04 00:21:54;;;;;;;81.10;41.47;;;-0.50;99.90;;;;;;5032595;28;20079;-53
2023/03/04 00:24:20;;;;;;;86.07;42.45;;;-0.40;99.90;;;;;;5033207;28;20026;-51
2023/03/04 00:26:47;;;;;;;80.72;44.53;;;-0.50;99.90;;;;;;5033715;28;20049;-51
2023/03/04 00:29:12;;;;;;;89.32;45.30;;;-0.50;99.90;;;;;;5033954;28;20404;-51
2023/03/04 00:31:38;;;;;;;76.32;41.60;;;-0.50;99.90;;;;;;5031907;28;20046;-50
2023/03/04 00:34:04;;;;;;;84.68;44.45;;;-0.50;99.90;;;;;;5032073;28;20026;-50
2023/03/04 00:36:30;;;;;;;102.40;45.67;;;-0.60;99.90;;;;;;5032569;28;20025;-51
2023/03/04 00:38:55;;;;;;;82.97;43.33;;;-0.60;99.90;;;;;;5033496;28;20112;-51
2023/03/04 00:41:21;;;;;;;77.72;41.85;;;-0.50;99.90;;;;;;5033939;28;20026;-51
2023/03/04 00:43:46;;;;;;;82.90;41.70;;;-0.60;99.90;;;;;;5031826;28;20048;-49
2023/03/04 00:46:12;;;;;;;89.57;41.80;;;-0.50;99.90;;;;;;5046579;28;20103;-49
2023/03/04 00:48:38;;;;;;;82.50;42.55;;;-0.50;99.90;;;;;;5049472;28;20105;-52
2023/03/04 00:51:04;;;;;;;82.43;42.75;;;-0.60;99.90;;;;;;5033120;28;20017;-51
2023/03/04 00:53:30;;;;;;;90.57;44.30;;;-0.60;99.90;;;;;;5032581;28;20029;-50
2023/03/04 00:55:55;;;;;;;101.82;44.60;;;-0.70;99.90;;;;;;5033713;28;20056;-50
2023/03/04 00:58:21;;;;;;;84.57;42.88;;;-0.70;99.90;;;;;;5033201;28;20373;-50
2023/03/04 01:00:47;;;;;;;75.30;40.42;;;-0.70;99.90;;;;;;5032999;28;20476;-49
2023/03/04 01:03:13;;;;;;;89.70;42.13;;;-0.70;99.90;;;;;;5033636;28;20104;-49
2023/03/04 01:05:39;;;;;;;78.75;42.20;;;-0.70;99.90;;;;;;5031285;28;20464;-54
2023/03/04 01:08:04;;;;;;;87.95;43.30;;;-0.70;99.90;;;;;;5032337;28;20087;-51
2023/03/04 01:10:30;;;;;;;75.00;40.20;;;-0.70;99.90;;;;;;5032320;28;20728;-50
2023/03/04 01:12:56;;;;;;;84.25;42.15;;;-0.70;99.90;;;;;;5031930;28;20116;-50
2023/03/04 01:15:22;;;;;;;78.88;40.58;;;-0.80;99.90;;;;;;5032542;28;20030;-49
2023/03/04 01:17:48;;;;;;;82.93;42.78;;;-0.80;99.90;;;;;;5033483;28;20022;-51
2023/03/04 01:20:14;;;;;;;89.03;44.60;;;-0.80;99.90;;;;;;5032239;28;20025;-50
2023/03/04 01:22:40;;;;;;;83.93;40.97;;;-0.70;99.90;;;;;;5032656;28;20037;-51
2023/03/04 01:25:07;;;;;;;82.50;40.72;;;-0.80;99.90;;;;;;5032530;28;20029;-50
2023/03/04 01:27:32;;;;;;;86.55;42.20;;;-0.80;99.90;;;;;;5032065;28;20025;-49
2023/03/04 01:29:58;;;;;;;84.72;43.05;;;-0.80;99.90;;;;;;5045324;28;20412;-49
2023/03/04 01:32:23;;;;;;;76.82;40.53;;;-0.90;99.90;;;;;;5051630;28;20372;-51
2023/03/04 01:34:49;;;;;;;89.40;41.63;;;-0.90;99.90;;;;;;5051520;28;20036;-51
2023/03/04 01:37:15;;;;;;;84.38;42.40;;;-0.90;99.90;;;;;;5052197;28;20063;-50
2023/03/04 01:39:40;;;;;;;79.93;40.67;;;-0.90;99.90;;;;;;5050494;28;20033;-50
2023/03/04 01:42:17;;;;;;;83.43;43.03;;;-0.90;99.90;;;;;;5051612;28;20106;-49
2023/03/04 01:44:43;;;;;;;89.18;42.58;;;-1.00;99.90;;;;;;5051562;28;20418;-52
2023/03/04 01:47:09;;;;;;;89.82;44.67;;;-1.00;99.90;;;;;;5053470;28;20601;-51
2023/03/04 01:49:35;;;;;;;87.68;43.08;;;-1.00;99.90;;;;;;5051001;28;20127;-52
2023/03/04 01:52:01;;;;;;;88.05;44.97;;;-1.00;99.90;;;;;;5050977;28;20028;-51
2023/03/04 01:54:26;;;;;;;103.47;43.72;;;-1.00;99.90;;;;;;5050496;28;20056;-51
2023/03/04 01:56:52;;;;;;;90.00;43.67;;;-1.00;99.90;;;;;;5050181;28;20017;-51
2023/03/04 01:59:22;;;;;;;86.30;45.22;;;-1.00;99.90;;;;;;5050215;28;20112;-51
2023/03/04 02:01:57;;;;;;;90.07;45.20;;;-1.00;99.90;;;;;;5050376;28;20029;-51
2023/03/04 02:04:31;;;;;;;93.80;44.38;;;-1.00;99.90;;;;;;5050527;28;20114;-50
2023/03/04 02:06:58;;;;;;;90.53;45.63;;;-1.00;99.90;;;;;;5050300;28;20021;-50
2023/03/04 02:09:24;;;;;;;89.63;47.90;;;-1.10;99.90;;;;;;5045832;28;20025;-50
2023/03/04 02:11:52;;;;;;;96.88;47.53;;;-1.10;99.90;;;;;;5044998;28;20045;-50
2023/03/04 02:17:40;;;;;;;83.50;41.17;;;-1.10;99.90;;;;;;5042734;28;20034;-50
2023/03/04 02:20:47;;;;;;;86.40;43.47;;;-1.00;99.90;;;;;;5031629;28;20029;-52
2023/03/04 02:23:40;;;;;;;94.22;44.97;;;-1.00;99.90;;;;;;5033429;28;20388;-52
2023/03/04 02:26:12;;;;;;;91.55;44.00;;;-1.00;99.90;;;;;;5038375;28;20040;-50
2023/03/04 02:28:38;;;;;;;90.13;44.65;;;-1.00;99.90;;;;;;5034952;28;20044;-53
2023/03/04 02:31:04;;;;;;;95.05;44.58;;;-1.10;99.90;;;;;;5029069;28;20017;-51
2023/03/04 02:33:30;;;;;;;86.95;43.97;;;-1.10;99.90;;;;;;5030374;28;20546;-52
2023/03/04 02:35:55;;;;;;;88.35;44.08;;;-1.10;99.90;;;;;;5030509;28;20024;-50
2023/03/04 02:38:21;;;;;;;90.50;45.65;;;-1.10;99.90;;;;;;5030025;28;20029;-51
2023/03/04 02:40:51;;;;;;;101.22;47.88;;;-1.10;99.90;;;;;;5030482;28;20124;-50
2023/03/04 02:43:17;;;;;;;102.63;49.55;;;-1.10;99.90;;;;;;5030438;28;20528;-52
2023/03/04 02:45:46;;;;;;;89.53;47.00;;;-1.10;99.90;;;;;;5033396;28;20025;-49
2023/03/04 02:48:13;;;;;;;90.22;46.70;;;-1.10;99.90;;;;;;5035227;28;20079;-51
2023/03/04 02:50:48;;;;;;;89.20;46.05;;;-1.10;99.90;;;;;;5035055;28;20090;-52
2023/03/04 02:53:15;;;;;;;97.32;45.95;;;-1.10;99.90;;;;;;5035195;28;20026;-54
2023/03/04 02:55:45;;;;;;;89.25;47.38;;;-1.10;99.90;;;;;;5034709;28;20021;-52
2023/03/04 02:58:10;;;;;;;102.63;49.65;;;-1.10;99.90;;;;;;5034170;28;20021;-51
2023/03/04 03:00:36;;;;;;;94.05;45.65;;;-1.20;99.90;;;;;;5035821;28;20028;-52
2023/03/04 03:03:02;;;;;;;92.15;46.55;;;-1.20;99.90;;;;;;5034122;28;20064;-52
2023/03/04 03:05:31;;;;;;;90.75;47.97;;;-1.30;99.90;;;;;;5032572;28;20030;-51
2023/03/04 03:07:56;;;;;;;92.13;46.10;;;-1.30;99.90;;;;;;5034355;28;20029;-52
2023/03/04 03:10:23;;;;;;;83.50;45.78;;;-1.30;99.90;;;;;;5034516;28;20029;-52
2023/03/04 03:12:48;;;;;;;85.03;44.60;;;-1.20;99.90;;;;;;5034066;28;20110;-54
2023/03/04 03:15:14;;;;;;;102.00;47.75;;;-1.30;99.90;;;;;;5034830;28;20060;-52
2023/03/04 03:17:40;;;;;;;93.95;47.05;;;-1.30;99.90;;;;;;5034515;28;20049;-50
2023/03/04 03:20:08;;;;;;;99.13;49.17;;;-1.40;99.90;;;;;;5034675;28;20018;-51
2023/03/04 03:22:34;;;;;;;93.03;48.08;;;-1.40;99.90;;;;;;5034552;28;20036;-51
2023/03/04 03:25:00;;;;;;;96.95;47.08;;;-1.40;99.90;;;;;;5034281;28;20025;-51
2023/03/04 03:27:25;;;;;;;91.82;47.00;;;-1.30;99.90;;;;;;5034548;28;20037;-53
2023/03/04 03:29:51;;;;;;;89.30;45.65;;;-1.30;99.90;;;;;;5034399;28;20049;-49
2023/03/04 03:32:16;;;;;;;93.30;43.45;;;-1.30;99.90;;;;;;5034421;28;20029;-51
2023/03/04 03:34:42;;;;;;;91.05;45.03;;;-1.30;99.90;;;;;;5032908;28;20029;-49
2023/03/04 03:37:08;;;;;;;89.45;45.17;;;-1.20;99.90;;;;;;5034564;28;20053;-52
2023/03/04 03:39:33;;;;;;;89.65;43.50;;;-1.20;99.90;;;;;;5034344;28;20152;-54
2023/03/04 03:41:59;;;;;;;85.97;44.72;;;-1.20;99.90;;;;;;5034438;28;20049;-49
2023/03/04 03:44:25;;;;;;;85.72;44.55;;;-1.20;99.90;;;;;;5033987;28;20386;-50
2023/03/04 03:46:50;;;;;;;84.95;45.22;;;-1.20;99.90;;;;;;5034041;28;20068;-51
2023/03/04 03:49:16;;;;;;;91.53;42.55;;;-1.30;99.90;;;;;;5034154;28;20036;-51
2023/03/04 03:51:42;;;;;;;90.00;45.17;;;-1.20;99.90;;;;;;5033387;28;20423;-53
2023/03/04 03:54:08;;;;;;;98.22;46.85;;;-1.20;99.90;;;;;;5034421;28;20104;-51
2023/03/04 03:56:34;;;;;;;102.47;47.88;;;-1.30;99.90;;;;;;5033511;28;20021;-51
2023/03/04 03:58:59;;;;;;;85.10;44.15;;;-1.40;99.90;;;;;;5034370;28;20055;-50
2023/03/04 04:01:25;;;;;;;100.97;44.55;;;-1.40;99.90;;;;;;5033941;28;20064;-49
2023/03/04 04:03:51;;;;;;;91.00;45.65;;;-1.40;99.90;;;;;;5043865;28;20033;-51
2023/03/04 04:06:16;;;;;;;106.90;48.00;;;-1.30;99.90;;;;;;5042878;28;20034;-51
2023/03/04 04:08:42;;;;;;;105.82;47.45;;;-1.30;99.90;;;;;;5034131;28;20044;-51
2023/03/04 04:11:11;;;;;;;97.10;48.00;;;-1.30;99.90;;;;;;5038183;28;20045;-49
2023/03/04 04:13:37;;;;;;;114.43;49.92;;;-1.30;99.90;;;;;;5052662;28;20035;-51
2023/03/04 04:16:03;;;;;;;94.72;47.88;;;-1.20;99.90;;;;;;5053451;28;20016;-55
2023/03/04 04:18:29;;;;;;;98.90;45.65;;;-1.20;99.90;;;;;;5053138;28;20028;-51
2023/03/04 04:20:54;;;;;;;103.28;49.17;;;-1.10;99.90;;;;;;5051954;28;20017;-49
2023/03/04 04:23:20;;;;;;;106.22;48.55;;;-1.10;99.90;;;;;;5032931;28;20025;-51
2023/03/04 04:25:46;;;;;;;101.68;47.08;;;-1.00;99.90;;;;;;5033311;28;20071;-50
2023/03/04 04:28:12;;;;;;;97.50;46.72;;;-1.00;99.90;;;;;;5032795;28;20116;-49
2023/03/04 04:30:38;;;;;;;107.40;48.00;;;-0.90;99.90;;;;;;5033042;28;20045;-51
2023/03/04 04:33:03;;;;;;;92.13;47.58;;;-0.80;99.90;;;;;;5033114;28;20033;-52
2023/03/04 04:35:35;;;;;;;94.53;48.42;;;-0.80;99.90;;;;;;5033283;28;20079;-50
2023/03/04 04:38:01;;;;;;;101.82;47.28;;;-0.80;99.90;;;;;;5033160;28;20005;-50
2023/03/04 04:40:26;;;;;;;100.00;47.85;;;-0.70;99.90;;;;;;5031960;28;20120;-49
2023/03/04 04:42:52;;;;;;;94.95;46.78;;;-0.70;99.90;;;;;;5032974;28;20350;-49
2023/03/04 04:45:18;;;;;;;100.78;46.35;;;-0.70;99.90;;;;;;5032937;28;20030;-52
2023/03/04 04:47:43;;;;;;;102.18;46.95;;;-0.70;99.90;;;;;;5033380;28;20100;-52
2023/03/04 04:50:09;;;;;;;95.68;46.63;;;-0.60;99.90;;;;;;5032990;28;20079;-52
2023/03/04 04:52:35;;;;;;;99.28;46.97;;;-0.60;99.90;;;;;;5039363;28;20030;-49
2023/03/04 04:55:02;;;;;;;106.47;50.28;;;-0.50;99.90;;;;;;5032807;28;20052;-50
2023/03/04 04:57:27;;;;;;;99.72;47.67;;;-0.50;99.90;;;;;;5032848;28;20456;-51
2023/03/04 05:03:15;;;;;;;101.90;51.20;;;-0.60;99.90;;;;;;5052039;28;20072;-50
2023/03/04 05:05:41;;;;;;;103.38;45.58;;;-0.60;99.90;;;;;;5052499;28;20048;-49
2023/03/04 05:08:07;;;;;;;114.57;53.38;;;-0.50;99.90;;;;;;5052955;28;20116;-50
2023/03/04 05:10:32;;;;;;;100.95;47.20;;;-0.40;99.90;;;;;;5052319;28;20112;-49
2023/03/04 05:12:58;;;;;;;105.88;49.10;;;-0.40;99.90;;;;;;5050163;28;20033;-50
2023/03/04 05:15:24;;;;;;;91.18;47.72;;;-0.40;99.90;;;;;;5052204;28;20066;-51
2023/03/04 05:17:50;;;;;;;99.30;47.28;;;-0.30;99.90;;;;;;5052673;28;20021;-49
2023/03/04 05:20:15;;;;;;;98.95;46.97;;;-0.30;99.90;;;;;;5052524;28;20514;-52
2023/03/04 05:22:41;;;;;;;93.90;49.40;;;-0.20;99.90;;;;;;5037238;28;20560;-52
2023/03/04 05:25:07;;;;;;;97.18;49.80;;;-0.20;99.90;;;;;;5032086;28;20033;-49
2023/03/04 05:27:33;;;;;;;83.65;45.90;;;-0.20;99.90;;;;;;5032165;28;20720;-50
2023/03/04 05:29:58;;;;;;;92.18;46.60;;;-0.10;99.90;;;;;;5031930;28;20017;-52
2023/03/04 05:32:30;;;;;;;97.63;46.35;;;0.00;99.90;;;;;;5043383;28;20060;-53
2023/03/04 05:34:56;;;;;;;84.53;47.25;;;0.00;99.90;;;;;;5052170;28;20017;-49
2023/03/04 05:37:22;;;;;;;98.38;49.90;;;0.10;99.90;;;;;;5052018;28;20025;-51
2023/03/04 05:39:47;;;;;;;90.95;45.35;;;0.10;99.90;;;;;;5051944;28;20043;-51
2023/03/04 05:42:13;;;;;;;93.32;46.88;;;0.20;99.90;;;;;;5051781;28;20739;-51
2023/03/04 05:44:38;;;;;;;96.07;48.40;;;0.30;99.90;;;;;;5051798;28;20472;-51
2023/03/04 05:47:04;;;;;;;95.15;48.17;;;0.40;99.90;;;;;;5051999;28;20063;-53
2023/03/04 05:49:30;;;;;;;97.68;48.75;;;0.50;99.90;;;;;;5052858;28;20036;-53
2023/03/04 05:51:55;;;;;;;107.68;52.63;;;0.60;99.90;;;;;;5051311;28;20033;-50
2023/03/04 05:54:21;;;;;;;102.57;51.45;;;0.70;99.90;;;;;;5050473;28;20131;-52
2023/03/04 05:56:46;;;;;;;97.40;46.70;;;0.90;99.90;;;;;;5051578;28;20373;-51
2023/03/04 05:59:12;;;;;;;101.80;51.38;;;1.00;99.90;;;;;;5051764;28;20032;-54
2023/03/04 06:01:38;;;;;;;124.32;52.55;;;1.20;99.90;;;;;;5051368;28;20025;-52
2023/03/04 06:04:04;;;;;;;118.35;60.25;;;1.30;99.90;;;;;;5051536;28;20021;-52
2023/03/04 06:06:29;;;;;;;123.70;58.47;;;1.40;99.90;;;;;;5051278;28;20096;-51
2023/03/04 06:08:55;;;;;;;123.80;59.08;;;1.50;99.90;;;;;;5049589;28;20021;-48
2023/03/04 06:11:21;;;;;;;117.53;54.28;;;1.60;99.90;;;;;;5050432;28;20072;-49
2023/03/04 06:13:46;;;;;;;105.80;53.90;;;1.80;99.90;;;;;;5051591;28;20656;-51
2023/03/04 06:16:12;;;;;;;110.57;57.03;;;2.00;99.90;;;;;;5051649;28;20021;-52
2023/03/04 06:18:38;;;;;;;113.47;56.10;;;2.10;99.90;;;;;;5050755;28;20032;-50
2023/03/04 06:21:04;;;;;;;131.68;61.72;;;2.20;99.90;;;;;;5050093;28;20514;-49
2023/03/04 06:23:30;;;;;;;106.97;54.70;;;2.20;99.90;;;;;;5046519;28;20116;-52
2023/03/04 06:25:57;;;;;;;108.43;55.70;;;2.30;99.90;;;;;;5050977;28;20108;-49
2023/03/04 06:28:23;;;;;;;102.78;52.22;;;2.30;99.90;;;;;;5050821;28;20025;-50
2023/03/04 06:30:53;;;;;;;112.78;55.33;;;2.40;99.90;;;;;;5051318;28;20065;-49
2023/03/04 06:33:19;;;;;;;100.68;54.08;;;2.40;99.90;;;;;;5050172;28;20021;-51
2023/03/04 06:35:45;;;;;;;108.90;56.80;;;2.50;99.90;;;;;;5051633;28;20029;-49
2023/03/04 06:38:10;;;;;;;105.25;53.30;;;2.60;99.90;;;;;;5050659;28;20521;-49
2023/03/04 06:40:36;;;;;;;108.22;55.80;;;2.60;99.90;;;;;;5050983;28;20656;-50
2023/03/04 06:43:02;;;;;;;109.57;55.40;;;2.70;99.90;;;;;;5050050;28;20391;-49
2023/03/04 06:45:27;;;;;;;113.70;55.72;;;2.80;99.90;;;;;;5051331;28;20531;-50
2023/03/04 06:47:53;;;;;;;103.07;51.20;;;2.80;99.90;;;;;;5050548;28;20017;-50
2023/03/04 06:50:19;;;;;;;101.35;51.97;;;3.00;99.90;;;;;;5050258;28;20048;-51
2023/03/04 06:52:44;;;;;;;105.55;60.38;;;3.10;99.90;;;;;;5031075;28;20044;-50
2023/03/04 06:55:11;;;;;;;102.68;52.75;;;3.10;99.90;;;;;;5031007;28;20029;-50
2023/03/04 06:57:37;;;;;;;107.85;54.20;;;3.20;99.90;;;;;;5030626;28;20026;-50
2023/03/04 07:00:04;;;;;;;120.05;62.72;;;3.30;99.90;;;;;;5031207;28;20644;-49
2023/03/04 07:02:30;;;;;;;101.65;54.50;;;3.40;99.90;;;;;;5032881;28;20385;-51
2023/03/04 07:04:56;;;;;;;105.55;60.38;;;3.40;99.90;;;;;;5030743;28;20037;-53
2023/03/04 07:07:22;;;;;;;86.32;47.28;;;3.50;99.90;;;;;;5046470;28;20408;-50
2023/03/04 07:09:47;;;;;;;86.47;46.17;;;3.60;99.90;;;;;;5050952;28;20032;-54
2023/03/04 07:12:13;;;;;;;86.70;45.85;;;3.70;99.90;;;;;;5050367;28;20401;-50
2023/03/04 07:14:39;;;;;;;80.75;45.03;;;3.90;99.90;;;;;;5050363;28;20040;-49
2023/03/04 07:17:04;;;;;;;95.13;45.55;;;3.80;99.90;;;;;;5050580;28;20357;-49
2023/03/04 07:19:30;;;;;;;86.07;45.28;;;3.80;99.90;;;;;;5049837;28;20492;-50
2023/03/04 07:21:56;;;;;;;76.18;42.47;;;3.90;99.90;;;;;;5050099;28;20037;-50
2023/03/04 07:24:21;;;;;;;81.78;43.78;;;3.90;99.90;;;;;;5050393;28;20033;-52
2023/03/04 07:26:47;;;;;;;83.28;43.88;;;4.10;99.90;;;;;;5050666;28;20108;-52
2023/03/04 07:29:13;;;;;;;83.82;41.97;;;4.00;99.90;;;;;;5048926;28;20033;-53
2023/03/04 07:31:38;;;;;;;79.65;39.58;;;3.90;99.90;;;;;;5031495;28;20379;-50
2023/03/04 07:34:07;;;;;;;86.07;45.05;;;4.10;99.90;;;;;;5034638;28;20025;-53
2023/03/04 07:36:35;;;;;;;79.32;40.78;;;4.20;99.90;;;;;;5033856;28;20451;-49
2023/03/04 07:39:07;;;;;;;84.10;42.08;;;4.10;99.90;;;;;;5035033;28;20032;-50
2023/03/04 07:41:35;;;;;;;80.05;41.38;;;4.20;99.90;;;;;;5032875;28;20358;-49
2023/03/04 07:44:02;;;;;;;80.15;40.05;;;4.30;99.90;;;;;;5033945;28;20065;-54
2023/03/04 07:46:28;;;;;;;77.63;41.28;;;4.30;99.90;;;;;;5034224;28;20037;-50
2023/03/04 07:48:56;;;;;;;79.65;43.28;;;4.50;99.90;;;;;;5034457;28;20029;-52
2023/03/04 07:51:24;;;;;;;81.38;39.95;;;4.60;99.90;;;;;;5033968;28;20022;-51
2023/03/04 07:53:55;;;;;;;89.97;48.60;;;4.50;99.90;;;;;;5043133;28;20108;-51
2023/03/04 07:56:22;;;;;;;79.13;41.35;;;4.50;99.90;;;;;;5053582;28;20048;-54
2023/03/04 07:58:48;;;;;;;80.82;37.35;;;4.70;99.90;;;;;;5048227;28;20036;-50
2023/03/04 08:01:17;;;;;;;71.72;38.33;;;4.80;99.90;;;;;;5042865;28;20024;-54
2023/03/04 08:03:42;;;;;;;75.53;37.75;;;4.70;99.90;;;;;;5043136;28;20487;-55
2023/03/04 08:06:12;;;;;;;64.20;37.33;;;4.70;99.90;;;;;;5049970;28;20060;-53
2023/03/04 08:08:38;;;;;;;60.10;35.13;;;4.90;99.90;;;;;;5048628;28;20032;-50
2023/03/04 08:11:09;;;;;;;64.88;38.22;;;5.00;99.90;;;;;;5070738;28;20131;-52
2023/03/04 08:13:35;;;;;;;69.03;34.63;;;5.00;99.90;;;;;;5058562;28;20016;-52
2023/03/04 08:16:01;;;;;;;61.60;34.88;;;5.10;99.90;;;;;;5063865;28;20079;-55
2023/03/04 08:18:27;;;;;;;63.58;36.03;;;5.00;99.90;;;;;;5059528;28;20036;-53
2023/03/04 08:20:52;;;;;;;63.42;35.22;;;5.10;99.90;;;;;;5057827;28;20017;-55
2023/03/04 08:23:18;;;;;;;54.97;30.38;;;5.10;99.90;;;;;;5053844;28;20116;-50
2023/03/04 08:25:45;;;;;;;63.60;33.42;;;5.30;99.90;;;;;;5044576;28;20031;-53
2023/03/04 08:28:14;;;;;;;60.17;33.03;;;5.30;99.90;;;;;;5047720;28;20025;-52
2023/03/04 08:30:40;;;;;;;99.40;49.28;;;5.40;99.90;;;;;;5032738;28;20031;-53
2023/03/04 08:33:07;;;;;;;76.95;38.53;;;5.30;99.90;;;;;;5033143;28;20392;-50
2023/03/04 08:35:35;;;;;;;186.93;82.05;;;5.50;99.90;;;;;;5032625;28;20028;-53
2023/03/04 08:38:01;;;;;;;203.50;101.00;;;5.40;99.90;;;;;;5050606;28;20025;-51
2023/03/04 08:40:26;;;;;;;167.60;86.05;;;5.30;99.90;;;;;;5042647;28;20013;-51
2023/03/04 08:42:52;;;;;;;67.32;39.25;;;5.30;99.90;;;;;;5041768;28;20029;-51
2023/03/04 08:45:18;;;;;;;55.97;32.28;;;5.30;99.90;;;;;;5042913;28;20021;-56
2023/03/04 08:47:44;;;;;;;57.63;32.45;;;5.50;99.90;;;;;;5040638;28;20033;-53
2023/03/04 08:50:10;;;;;;;68.60;33.67;;;5.70;99.90;;;;;;5041823;28;20395;-53
2023/03/04 08:52:36;;;;;;;64.95;31.90;;;5.70;99.90;;;;;;5041190;28;20029;-53
2023/03/04 08:55:02;;;;;;;60.75;30.75;;;5.80;99.90;;;;;;5039668;28;20504;-51
2023/03/04 08:57:28;;;;;;;60.17;33.38;;;6.00;99.90;;;;;;5041875;28;20049;-48
2023/03/04 08:59:53;;;;;;;65.88;34.13;;;5.90;99.90;;;;;;5032533;28;20052;-54
2023/03/04 09:02:19;;;;;;;76.63;32.72;;;6.00;99.90;;;;;;5032836;28;20068;-54
2023/03/04 09:04:45;;;;;;;72.57;35.25;;;5.90;99.90;;;;;;5032380;28;20026;-52
2023/03/04 09:07:10;;;;;;;61.38;32.72;;;6.00;99.90;;;;;;5032153;28;20479;-52
2023/03/04 09:09:36;;;;;;;62.55;32.70;;;6.10;99.90;;;;;;5031778;28;20044;-50
2023/03/04 09:12:02;;;;;;;56.92;31.55;;;6.00;99.90;;;;;;5029904;28;20049;-52
2023/03/04 09:14:28;;;;;;;53.97;31.48;;;5.90;99.90;;;;;;5032381;28;20021;-54
2023/03/04 09:16:54;;;;;;;63.78;34.25;;;6.10;99.90;;;;;;5032844;28;20048;-51
2023/03/04 09:19:19;;;;;;;75.13;36.03;;;6.30;99.90;;;;;;5033295;28;20093;-52
2023/03/04 09:21:45;;;;;;;58.13;32.50;;;6.30;99.90;;;;;;5031847;28;20033;-52
2023/03/04 09:24:10;;;;;;;51.20;30.80;;;6.60;99.90;;;;;;5030515;28;20405;-53
2023/03/04 09:26:36;;;;;;;52.20;30.35;;;6.70;99.90;;;;;;5031716;28;20445;-53
2023/03/04 09:29:03;;;;;;;54.03;31.80;;;6.80;99.90;;;;;;5031762;28;20017;-53
2023/03/04 09:31:29;;;;;;;66.97;30.42;;;6.60;99.90;;;;;;5032387;28;20022;-51
2023/03/04 09:33:58;;;;;;;44.78;26.80;;;6.50;99.90;;;;;;5032178;28;20017;-53
2023/03/04 09:36:24;;;;;;;46.63;24.98;;;6.80;99.90;;;;;;5035442;28;20354;-50
2023/03/04 09:38:50;;;;;;;65.40;28.60;;;6.70;99.90;;;;;;5033875;28;20033;-50
2023/03/04 09:41:27;;;;;;;47.80;26.20;;;6.90;99.90;;;;;;5031317;28;20013;-54
2023/03/04 09:43:54;;;;;;;38.92;23.52;;;6.80;99.90;;;;;;5030883;28;20029;-50
2023/03/04 09:46:37;;;;;;;47.35;23.52;;;6.70;99.20;;;;;;5032205;28;20442;-50
2023/03/04 09:49:03;;;;;;;44.35;23.02;;;7.00;99.00;;;;;;5047307;28;20033;-49
2023/03/04 09:51:40;;;;;;;40.53;22.60;;;6.80;98.60;;;;;;5050314;28;20022;-50
2023/03/04 09:54:09;;;;;;;39.65;22.23;;;7.00;98.80;;;;;;5050891;28;20033;-49
2023/03/04 09:56:38;;;;;;;35.05;22.00;;;7.20;97.60;;;;;;5051302;28;20048;-51
2023/03/04 09:59:24;;;;;;;47.28;21.95;;;7.30;97.80;;;;;;5041395;28;20021;-49
2023/03/04 10:01:59;;;;;;;39.88;22.13;;;6.90;97.70;;;;;;5029865;28;20638;-52
2023/03/04 10:04:34;;;;;;;46.90;22.92;;;7.30;98.20;;;;;;5032393;28;20025;-50
2023/03/04 10:07:02;;;;;;;38.55;21.35;;;7.40;96.50;;;;;;5036842;28;20026;-49
2023/03/04 10:09:48;;;;;;;31.60;19.88;;;7.40;97.20;;;;;;5032262;28;20413;-50
2023/03/04 10:12:18;;;;;;;63.42;32.28;;;7.20;97.10;;;;;;5045845;28;20064;-50
2023/03/04 10:14:50;;;;;;;36.50;21.02;;;7.10;97.00;;;;;;5029949;28;20053;-51
2023/03/04 10:17:21;;;;;;;37.25;21.35;;;7.10;97.00;;;;;;5041750;28;20035;-51
2023/03/04 10:20:19;;;;;;;51.08;25.75;;;7.20;96.00;;;;;;5049720;28;20027;-50
2023/03/04 10:22:47;;;;;;;62.50;28.05;;;7.30;96.10;;;;;;5038234;28;20056;-51
2023/03/04 10:25:18;;;;;;;29.95;18.63;;;7.20;94.80;;;;;;5045925;28;20155;-48
2023/03/04 10:28:11;;;;;;;51.83;27.45;;;7.20;96.40;;;;;;5044748;28;20179;-51
2023/03/04 10:30:42;;;;;;;45.97;23.33;;;7.40;94.50;;;;;;5063508;28;20032;-50
2023/03/04 10:33:19;;;;;;;32.95;19.10;;;7.30;95.10;;;;;;5054688;28;20032;-50
2023/03/04 10:36:05;;;;;;;27.83;16.98;;;7.50;95.30;;;;;;5049597;28;20021;-48
2023/03/04 10:38:33;;;;;;;34.88;19.40;;;7.80;94.50;;;;;;5050264;28;20020;-54
2023/03/04 10:41:00;;;;;;;56.03;28.83;;;7.60;94.40;;;;;;5049905;28;20074;-49
2023/03/04 10:43:27;;;;;;;47.78;24.50;;;7.60;93.80;;;;;;5049492;28;20559;-49
2023/03/04 10:46:00;;;;;;;29.10;16.60;;;7.90;94.10;;;;;;5031248;28;20026;-51
2023/03/04 10:48:28;;;;;;;33.33;20.08;;;8.40;93.60;;;;;;5030610;28;20037;-51
2023/03/04 10:51:11;;;;;;;27.20;17.45;;;8.70;92.10;;;;;;5031207;28;20025;-51
2023/03/04 10:53:39;;;;;;;29.35;17.25;;;8.80;91.20;;;;;;5029865;28;20377;-51
2023/03/04 10:56:44;;;;;;;28.30;17.05;;;9.10;90.80;;;;;;5029862;28;20028;-50
2023/03/04 10:59:29;;;;;;;;;;;9.10;35.00;;;;;;5035695;28;20029;-51
2023/03/04 11:01:55;;;;;;;27.52;19.27;;;9.10;99.90;;;;;;5030591;28;20004;-53
2023/03/04 11:04:24;;;;;;;31.02;17.45;;;8.80;1.00;;;;;;5029502;28;20100;-52
2023/03/04 11:06:51;;;;;;;28.40;17.58;;;9.20;1.00;;;;;;5033858;28;20033;-50
2023/03/04 11:09:24;;;;;;;28.80;17.05;;;10.50;99.90;;;;;;5036039;28;20068;-52
2023/03/04 11:11:53;;;;;;;27.35;15.43;;;11.50;1.00;;;;;;5046685;28;20071;-55
2023/03/04 11:14:43;;;;;;;36.38;17.45;;;12.20;99.90;;;;;;5056313;28;20029;-53
2023/03/04 11:17:27;;;;;;;28.83;15.98;;;12.60;1.00;;;;;;5054179;28;20078;-51
2023/03/04 11:20:10;;;;;;;31.10;15.10;;;13.00;99.90;;;;;;5055329;28;20026;-50
2023/03/04 11:22:37;;;;;;;37.65;18.00;;;13.10;99.90;;;;;;5034219;28;20079;-50
2023/03/04 11:25:11;;;;;;;24.15;15.38;;;13.00;99.90;;;;;;5033911;28;20040;-51
2023/03/04 11:27:51;;;;;;;42.67;27.85;;;13.90;99.90;;;;;;5033136;28;20076;-50
2023/03/04 11:30:40;;;;;;;40.35;21.08;;;14.10;99.90;;;;;;5033664;28;20044;-51
2023/03/04 11:33:18;;;;;;;24.27;17.10;;;13.40;83.20;;;;;;5033154;28;20116;-52
2023/03/04 11:35:58;;;;;;;25.65;16.50;;;15.20;69.40;;;;;;5032591;28;20067;-52
2023/03/04 11:38:37;;;;;;;30.95;17.92;;;15.10;95.80;;;;;;5032837;28;20408;-51
2023/03/04 11:41:23;;;;;;;26.20;16.73;;;14.70;99.90;;;;;;5032755;28;20104;-52
2023/03/04 11:43:49;;;;;;;29.80;16.98;;;15.00;99.90;;;;;;5032555;28;20026;-51
2023/03/04 11:46:37;;;;;;;26.70;17.02;;;15.90;1.00;;;;;;5031185;28;20033;-50
2023/03/04 11:49:21;;;;;;;29.40;16.77;;;16.10;99.90;;;;;;5032636;28;20025;-51
2023/03/04 11:52:09;;;;;;;30.98;18.98;;;15.90;1.00;;;;;;5033345;28;20017;-51
2023/03/04 11:54:56;;;;;;;28.67;17.65;;;16.00;99.90;;;;;;5033664;28;20477;-51
2023/03/04 11:57:34;;;;;;;35.15;19.67;;;14.80;1.00;;;;;;5034965;28;20033;-53
2023/03/04 12:00:35;;;;;;;29.77;19.17;;;13.90;99.90;;;;;;5037321;28;20013;-50
2023/03/04 12:03:13;;;;;;;38.38;19.98;;;14.70;99.90;;;;;;5034705;28;20032;-51
2023/03/04 12:06:11;;;;;;;32.63;21.55;;;14.30;1.00;;;;;;5042313;28;20037;-52
2023/03/04 12:08:46;;;;;;;29.17;18.23;;;13.80;79.60;;;;;;5034159;28;20060;-51
2023/03/04 12:11:38;;;;;;;32.78;18.80;;;14.30;39.70;;;;;;5069155;28;20045;-51
2023/03/04 12:14:24;;;;;;;37.63;22.00;;;13.20;62.20;;;;;;5052452;28;20029;-50
2023/03/04 12:17:29;;;;;;;33.05;21.23;;;13.50;14.00;;;;;;5052464;28;21477;-52
2023/03/04 12:20:28;;;;;;;27.83;18.48;;;14.40;1.00;;;;;;5044601;28;20116;-50
2023/03/04 12:23:26;;;;;;;36.67;20.25;;;16.10;99.90;;;;;;5022568;28;20029;-50
2023/03/04 12:26:02;;;;;;;30.25;19.30;;;17.10;99.90;;;;;;5027767;28;20037;-51
2023/03/04 12:28:37;;;;;;;33.60;20.08;;;17.70;1.00;;;;;;5020111;28;20044;-50
2023/03/04 12:31:03;;;;;;;34.63;18.52;;;16.50;1.00;;;;;;5021419;28;20034;-51
2023/03/04 12:33:37;;;;;;;30.77;18.67;;;16.10;1.00;;;;;;5023739;28;20060;-51
2023/03/04 12:36:19;;;;;;;31.98;20.70;;;15.20;1.00;;;;;;5021995;28;20037;-50
2023/03/04 12:39:12;;;;;;;34.25;19.38;;;15.20;99.90;;;;;;5022020;28;20037;-51
2023/03/04 12:41:46;;;;;;;26.48;16.45;;;15.20;16.80;;;;;;5021977;28;20527;-51
2023/03/04 12:44:19;;;;;;;23.55;15.85;;;15.60;1.00;;;;;;5023690;28;20365;-54
2023/03/04 12:47:10;;;;;;;22.75;16.13;;;18.10;1.00;;;;;;5021468;28;20512;-50
2023/03/04 12:49:44;;;;;;;25.15;16.15;;;17.70;99.90;;;;;;5026366;28;20033;-54